Time;durP1;ratioP1;P1;durP2;ratioP2;P2;SDS_P1;SDS_P2;PMS_P1;PMS_P2;Temp;Humidity;BMP_temperature;BMP_pressure;BME280_temperature;BME280_humidity;BME280_pressure;Samples;Min_cycle;Max_cycle;Signal;HPM_P1;HPM_P2
2023/01/23 00:01:25;;;;;;;2.63;2.42;;;18.90;49.20;;;;;;4994961;28;20252;-67
2023/01/23 00:03:53;;;;;;;2.92;2.72;;;18.90;49.20;;;;;;4967587;28;20181;-67
2023/01/23 00:06:19;;;;;;;2.45;2.25;;;18.80;49.20;;;;;;4990235;28;20192;-67
2023/01/23 00:08:46;;;;;;;2.42;2.22;;;18.90;49.20;;;;;;4992583;28;20204;-65
2023/01/23 00:11:16;;;;;;;2.40;2.20;;;18.90;49.20;;;;;;4987584;28;20205;-66
2023/01/23 00:13:42;;;;;;;2.72;2.53;;;18.90;49.20;;;;;;4986848;28;20193;-66
2023/01/23 00:16:13;;;;;;;2.35;2.15;;;18.80;49.20;;;;;;4996599;28;20246;-66
2023/01/23 00:18:39;;;;;;;2.40;2.30;;;18.90;49.20;;;;;;5013423;28;20272;-67
2023/01/23 00:21:12;;;;;;;2.20;2.10;;;18.90;49.20;;;;;;4992210;28;20204;-67
2023/01/23 00:23:51;;;;;;;2.05;1.95;;;18.80;49.20;;;;;;4992274;28;20246;-66
2023/01/23 00:26:21;;;;;;;2.63;2.42;;;18.80;49.20;;;;;;4992209;28;20271;-66
2023/01/23 00:28:49;;;;;;;2.30;2.10;;;18.90;49.20;;;;;;4983082;28;20189;-67
2023/01/23 00:31:28;;;;;;;2.22;2.13;;;18.90;49.20;;;;;;4998528;28;20292;-66
2023/01/23 00:33:57;;;;;;;3.10;2.90;;;18.90;49.20;;;;;;4992114;28;20192;-66
2023/01/23 00:36:27;;;;;;;2.30;2.10;;;18.80;49.10;;;;;;4975910;28;20279;-67
2023/01/23 00:38:54;;;;;;;2.75;2.10;;;18.90;49.20;;;;;;4991507;28;20208;-67
2023/01/23 00:41:20;;;;;;;2.40;2.20;;;18.80;49.20;;;;;;5016332;28;20236;-67
2023/01/23 00:43:47;;;;;;;2.05;1.95;;;18.80;49.10;;;;;;4991615;28;20181;-66
2023/01/23 00:46:13;;;;;;;2.50;2.30;;;18.80;49.20;;;;;;5008246;28;20177;-65
2023/01/23 00:48:39;;;;;;;2.03;1.92;;;18.80;49.10;;;;;;5016225;28;20279;-66
2023/01/23 00:51:05;;;;;;;2.50;2.30;;;18.80;49.10;;;;;;4991483;28;20217;-67
2023/01/23 00:53:30;;;;;;;2.55;2.35;;;18.80;49.00;;;;;;4975405;28;20199;-66
2023/01/23 00:55:56;;;;;;;2.20;2.00;;;18.80;49.10;;;;;;4982460;28;20217;-65
2023/01/23 00:58:22;;;;;;;2.03;1.92;;;18.80;49.20;;;;;;4997218;28;20229;-66
2023/01/23 01:00:48;;;;;;;2.50;2.30;;;18.80;49.20;;;;;;4985217;28;20254;-66
2023/01/23 01:03:14;;;;;;;2.20;2.10;;;18.80;49.10;;;;;;4991659;28;20193;-66
2023/01/23 01:05:40;;;;;;;2.10;2.00;;;18.90;49.20;;;;;;4996444;28;20225;-64
2023/01/23 01:08:06;;;;;;;2.20;2.10;;;18.80;49.10;;;;;;4991566;28;20188;-67
2023/01/23 01:10:32;;;;;;;2.30;2.10;;;18.80;49.10;;;;;;4991110;28;20231;-66
2023/01/23 01:13:02;;;;;;;2.25;2.05;;;18.80;49.10;;;;;;4991418;28;20192;-66
2023/01/23 01:15:28;;;;;;;2.15;2.03;;;18.80;49.10;;;;;;4983092;28;20653;-66
2023/01/23 01:17:56;;;;;;;2.20;2.00;;;18.90;49.20;;;;;;4998013;28;20186;-67
2023/01/23 01:20:24;;;;;;;1.92;1.83;;;18.80;49.10;;;;;;4988097;28;20340;-67
2023/01/23 01:22:54;;;;;;;2.08;1.90;;;18.80;49.10;;;;;;4989374;28;20196;-67
2023/01/23 01:25:21;;;;;;;2.00;1.90;;;18.80;49.10;;;;;;4975287;28;20196;-67
2023/01/23 01:27:47;;;;;;;2.00;1.90;;;18.80;49.10;;;;;;4991373;28;20227;-67
2023/01/23 01:30:15;;;;;;;1.90;1.80;;;18.80;49.10;;;;;;4991152;28;20211;-67
2023/01/23 01:32:41;;;;;;;2.60;2.40;;;18.80;49.10;;;;;;4971220;28;20190;-66
2023/01/23 01:35:08;;;;;;;2.30;2.10;;;18.80;49.10;;;;;;4994206;28;20212;-67
2023/01/23 01:37:36;;;;;;;2.45;2.25;;;18.80;49.00;;;;;;5000670;28;20252;-66
2023/01/23 01:40:05;;;;;;;2.15;2.05;;;18.80;49.00;;;;;;4976628;28;20207;-66
2023/01/23 01:42:53;;;;;;;2.25;2.13;;;18.80;49.10;;;;;;4996220;28;20222;-67
2023/01/23 01:46:05;;;;;;;2.00;1.90;;;18.80;49.00;;;;;;4991667;28;20196;-67
2023/01/23 01:48:40;;;;;;;1.98;1.88;;;18.80;49.00;;;;;;4997582;28;20234;-67
2023/01/23 01:51:19;;;;;;;1.77;1.67;;;18.80;49.00;;;;;;4994321;28;20214;-67
2023/01/23 01:53:51;;;;;;;2.10;2.00;;;18.80;49.00;;;;;;4994248;28;20216;-67
2023/01/23 01:56:18;;;;;;;2.03;1.92;;;18.80;49.00;;;;;;4999149;28;20212;-67
2023/01/23 01:58:49;;;;;;;2.25;1.90;;;18.80;49.00;;;;;;5007334;28;20681;-67
2023/01/23 02:01:16;;;;;;;1.90;1.80;;;18.80;49.00;;;;;;5005959;28;20213;-67
2023/01/23 02:03:44;;;;;;;1.92;1.73;;;18.80;48.90;;;;;;4982713;28;20188;-67
2023/01/23 02:06:09;;;;;;;2.33;2.15;;;18.80;49.10;;;;;;4983018;28;20193;-65
2023/01/23 02:09:11;;;;;;;2.25;2.10;;;18.80;49.00;;;;;;5005950;28;20203;-64
2023/01/23 02:11:37;;;;;;;1.60;1.50;;;18.80;49.00;;;;;;5003199;28;20213;-67
2023/01/23 02:14:03;;;;;;;2.13;2.03;;;18.80;49.00;;;;;;4974722;28;20239;-66
2023/01/23 02:16:38;;;;;;;2.10;2.00;;;18.80;48.90;;;;;;4996727;28;20220;-65
2023/01/23 02:19:18;;;;;;;2.05;1.83;;;18.80;49.00;;;;;;4991479;28;20254;-66
2023/01/23 02:21:48;;;;;;;1.80;1.70;;;18.80;48.90;;;;;;4982722;28;20259;-69
2023/01/23 02:24:36;;;;;;;2.00;1.90;;;18.80;48.90;;;;;;4995224;28;20216;-65
2023/01/23 02:27:03;;;;;;;2.00;1.90;;;18.80;48.90;;;;;;4974231;28;20673;-66
2023/01/23 02:29:42;;;;;;;2.40;2.20;;;18.80;48.90;;;;;;4971063;28;20191;-67
2023/01/23 02:32:09;;;;;;;2.28;2.10;;;18.80;48.90;;;;;;4989574;28;20211;-66
2023/01/23 02:34:36;;;;;;;1.80;1.70;;;18.80;48.90;;;;;;5007065;28;20753;-66
2023/01/23 02:37:05;;;;;;;2.00;1.90;;;18.80;48.90;;;;;;4988549;28;20192;-66
2023/01/23 02:39:31;;;;;;;1.98;1.77;;;18.80;48.80;;;;;;4999399;28;20193;-64
2023/01/23 02:42:00;;;;;;;2.00;1.90;;;18.80;48.90;;;;;;5003443;28;20259;-67
2023/01/23 02:44:40;;;;;;;1.98;1.88;;;18.80;48.80;;;;;;5013745;28;20184;-67
2023/01/23 02:47:11;;;;;;;1.85;1.75;;;18.80;48.90;;;;;;4994685;28;20271;-67
2023/01/23 02:49:38;;;;;;;2.08;1.98;;;18.80;48.80;;;;;;5000649;28;20195;-65
2023/01/23 02:52:06;;;;;;;1.80;1.70;;;18.80;48.80;;;;;;4997248;28;20212;-64
2023/01/23 02:54:34;;;;;;;1.90;1.80;;;18.80;48.80;;;;;;4999330;28;20296;-66
2023/01/23 02:57:00;;;;;;;1.80;1.70;;;18.80;48.80;;;;;;4994135;28;20192;-65
2023/01/23 03:02:13;;;;;;;2.15;2.00;;;18.80;48.80;;;;;;5005139;28;20223;-67
2023/01/23 03:04:39;;;;;;;1.80;1.70;;;18.80;48.80;;;;;;4998254;28;20212;-67
2023/01/23 03:07:05;;;;;;;1.77;1.67;;;18.80;48.80;;;;;;5012092;28;20653;-67
2023/01/23 03:09:31;;;;;;;2.15;2.00;;;18.80;48.80;;;;;;4983009;28;20219;-67
2023/01/23 03:11:57;;;;;;;2.00;1.90;;;18.80;48.80;;;;;;4993542;28;20196;-67
2023/01/23 03:14:24;;;;;;;1.90;1.80;;;18.80;48.80;;;;;;4993494;28;20180;-67
2023/01/23 03:16:52;;;;;;;1.95;1.85;;;18.80;48.80;;;;;;5018401;28;20180;-67
2023/01/23 03:19:23;;;;;;;1.95;1.85;;;18.80;48.70;;;;;;4997097;28;20206;-66
2023/01/23 03:21:50;;;;;;;1.63;1.52;;;18.80;48.70;;;;;;4977154;28;20593;-68
2023/01/23 03:24:17;;;;;;;1.83;1.73;;;18.80;48.80;;;;;;4996595;28;20274;-66
2023/01/23 03:26:46;;;;;;;1.90;1.80;;;18.90;48.80;;;;;;4981442;28;20605;-67
2023/01/23 03:32:08;;;;;;;1.80;1.70;;;18.80;48.70;;;;;;5010770;28;20247;-66
2023/01/23 03:34:34;;;;;;;1.77;1.67;;;18.80;48.70;;;;;;4998516;28;20602;-66
2023/01/23 03:37:02;;;;;;;1.70;1.60;;;18.80;48.70;;;;;;4992660;28;20183;-66
2023/01/23 03:42:16;;;;;;;1.85;1.75;;;18.90;48.70;;;;;;4985046;28;20204;-66
2023/01/23 03:44:42;;;;;;;1.80;1.70;;;18.90;48.70;;;;;;5009370;28;20192;-65
2023/01/23 03:47:08;;;;;;;1.88;1.77;;;18.90;48.70;;;;;;4976696;28;20239;-67
2023/01/23 03:49:36;;;;;;;1.60;1.50;;;18.90;48.60;;;;;;5007308;28;20271;-66
2023/01/23 03:52:02;;;;;;;1.80;1.70;;;18.90;48.60;;;;;;4996337;28;20304;-67
2023/01/23 03:54:29;;;;;;;1.60;1.50;;;18.90;48.70;;;;;;5012271;28;20196;-67
2023/01/23 03:56:55;;;;;;;1.80;1.70;;;18.90;48.70;;;;;;4993963;28;20187;-66
2023/01/23 03:59:50;;;;;;;2.00;1.90;;;18.90;48.60;;;;;;4999417;28;20259;-65
2023/01/23 04:02:19;;;;;;;2.00;1.90;;;18.90;48.70;;;;;;4973559;28;20213;-67
2023/01/23 04:04:45;;;;;;;1.73;1.42;;;18.90;48.70;;;;;;4976831;28;20244;-66
2023/01/23 04:07:11;;;;;;;1.77;1.63;;;18.90;48.70;;;;;;4986164;28;20195;-66
2023/01/23 04:09:38;;;;;;;1.75;1.65;;;18.90;48.70;;;;;;4981509;28;20188;-65
2023/01/23 04:12:05;;;;;;;1.98;1.88;;;18.90;48.70;;;;;;4992421;28;20211;-67
2023/01/23 04:14:36;;;;;;;1.67;1.58;;;18.90;48.70;;;;;;5008703;28;20223;-66
2023/01/23 04:17:04;;;;;;;1.98;1.88;;;18.90;48.70;;;;;;5001916;28;20319;-66
2023/01/23 04:19:31;;;;;;;1.63;1.52;;;18.90;48.60;;;;;;4995507;28;20215;-65
2023/01/23 04:21:56;;;;;;;2.00;1.90;;;18.90;48.60;;;;;;5002850;28;20250;-66
2023/01/23 04:24:22;;;;;;;1.75;1.65;;;18.90;48.60;;;;;;4988184;28;20251;-66
2023/01/23 04:26:48;;;;;;;1.65;1.55;;;18.90;48.60;;;;;;4995458;28;20173;-67
2023/01/23 04:29:15;;;;;;;1.67;1.58;;;18.90;48.60;;;;;;5025141;28;20246;-66
2023/01/23 04:31:42;;;;;;;1.40;1.30;;;18.90;48.70;;;;;;4992100;28;20205;-67
2023/01/23 04:34:08;;;;;;;2.15;2.00;;;18.90;48.60;;;;;;4992167;28;20177;-67
2023/01/23 04:36:34;;;;;;;1.83;1.73;;;19.00;48.70;;;;;;4975707;28;20296;-66
2023/01/23 04:39:00;;;;;;;1.90;1.80;;;18.90;48.60;;;;;;4991784;28;20212;-65
2023/01/23 04:41:31;;;;;;;2.10;1.90;;;18.90;48.50;;;;;;4975924;28;20215;-67
2023/01/23 04:44:18;;;;;;;1.80;1.70;;;18.90;48.50;;;;;;4993540;28;20747;-67
2023/01/23 04:46:52;;;;;;;1.98;1.88;;;19.00;48.70;;;;;;4984462;28;20216;-66
2023/01/23 04:49:24;;;;;;;1.85;1.75;;;18.90;48.50;;;;;;4994778;28;20215;-66
2023/01/23 04:51:51;;;;;;;1.88;1.77;;;19.00;48.60;;;;;;4995205;28;20736;-67
2023/01/23 04:54:21;;;;;;;1.70;1.60;;;18.90;48.60;;;;;;4995533;28;20625;-67
2023/01/23 04:56:48;;;;;;;1.90;1.80;;;18.90;48.50;;;;;;4995545;28;20207;-67
2023/01/23 04:59:16;;;;;;;1.90;1.80;;;19.00;48.60;;;;;;5011219;28;20211;-66
2023/01/23 05:01:44;;;;;;;1.83;1.73;;;19.00;48.60;;;;;;5015687;23;20267;-72
2023/01/23 05:04:11;;;;;;;1.70;1.60;;;18.90;48.60;;;;;;4993177;28;20188;-72
2023/01/23 05:06:37;;;;;;;1.90;1.80;;;19.00;48.60;;;;;;4994761;28;20275;-72
2023/01/23 05:09:05;;;;;;;2.08;1.88;;;18.90;48.50;;;;;;4987842;28;20199;-72
2023/01/23 05:11:38;;;;;;;1.77;1.67;;;19.00;48.60;;;;;;4978357;28;20304;-72
2023/01/23 05:14:03;;;;;;;1.88;1.77;;;19.00;48.60;;;;;;4990593;28;20190;-73
2023/01/23 05:16:31;;;;;;;2.00;1.90;;;19.00;48.60;;;;;;4977394;28;20208;-72
2023/01/23 05:19:16;;;;;;;1.85;1.75;;;19.00;48.60;;;;;;4987017;28;20211;-72
2023/01/23 05:21:42;;;;;;;2.03;1.92;;;19.00;48.60;;;;;;4960075;28;20208;-72
2023/01/23 05:24:13;;;;;;;1.80;1.70;;;19.00;48.60;;;;;;4947481;28;20335;-72
2023/01/23 05:26:39;;;;;;;2.00;1.80;;;19.00;48.60;;;;;;4989776;28;20265;-72
2023/01/23 05:29:06;;;;;;;2.45;1.92;;;19.00;48.60;;;;;;4960046;28;20184;-72
2023/01/23 05:31:35;;;;;;;1.73;1.63;;;19.00;48.60;;;;;;4964242;28;20248;-72
2023/01/23 05:34:26;;;;;;;2.08;1.98;;;19.00;48.60;;;;;;4964129;28;20196;-72
2023/01/23 05:36:52;;;;;;;1.90;1.80;;;19.00;48.60;;;;;;4959206;28;20189;-71
2023/01/23 05:39:18;;;;;;;2.08;1.98;;;19.00;48.60;;;;;;4975760;28;20188;-71
2023/01/23 05:41:43;;;;;;;2.10;2.00;;;19.00;48.60;;;;;;4969655;28;20213;-71
2023/01/23 05:44:29;;;;;;;1.70;1.60;;;19.00;48.60;;;;;;4956375;28;20268;-72
2023/01/23 05:47:02;;;;;;;2.28;2.08;;;19.00;48.60;;;;;;4976243;28;20724;-72
2023/01/23 05:49:28;;;;;;;2.28;2.08;;;19.00;48.60;;;;;;4963626;28;20186;-72
2023/01/23 05:51:55;;;;;;;2.20;2.10;;;19.00;48.60;;;;;;4970514;28;20254;-72
2023/01/23 05:54:23;;;;;;;2.20;2.00;;;19.00;48.60;;;;;;4974927;28;20185;-72
2023/01/23 05:56:50;;;;;;;2.35;2.15;;;19.00;48.60;;;;;;4975002;28;20213;-72
2023/01/23 05:59:36;;;;;;;1.98;1.88;;;19.00;49.20;;;;;;4996171;28;20188;-72
2023/01/23 06:02:27;;;;;;;2.33;2.13;;;19.00;48.60;;;;;;4982175;28;20282;-71
2023/01/23 06:05:12;;;;;;;2.50;2.30;;;19.00;48.60;;;;;;4979270;28;20189;-72
2023/01/23 06:08:04;;;;;;;2.33;2.13;;;19.00;48.60;;;;;;4992300;28;20220;-72
2023/01/23 06:10:29;;;;;;;2.00;1.90;;;19.00;48.60;;;;;;4993609;28;20209;-72
2023/01/23 06:12:56;;;;;;;2.17;2.08;;;19.00;48.60;;;;;;4970714;28;20250;-72
2023/01/23 06:15:22;;;;;;;2.45;2.25;;;19.00;48.60;;;;;;4998061;28;20204;-72
2023/01/23 06:17:52;;;;;;;2.70;2.50;;;19.10;48.70;;;;;;4997804;28;20176;-72
2023/01/23 06:20:18;;;;;;;2.60;2.40;;;19.00;48.60;;;;;;4977846;28;20197;-72
2023/01/23 06:22:45;;;;;;;2.80;2.25;;;19.00;48.60;;;;;;4977642;28;20204;-72
2023/01/23 06:25:12;;;;;;;2.63;2.40;;;19.00;48.60;;;;;;4977727;28;20184;-72
2023/01/23 06:27:38;;;;;;;2.10;2.00;;;19.00;48.60;;;;;;4969296;28;20674;-73
2023/01/23 06:30:08;;;;;;;2.72;2.50;;;19.00;48.60;;;;;;4978537;28;20184;-72
2023/01/23 06:32:38;;;;;;;2.60;2.40;;;19.00;48.60;;;;;;4995469;28;20214;-75
2023/01/23 06:35:06;;;;;;;2.67;2.47;;;19.00;48.60;;;;;;4962393;28;20213;-72
2023/01/23 06:37:36;;;;;;;2.97;2.67;;;19.00;48.60;;;;;;4981454;28;20180;-72
2023/01/23 06:40:03;;;;;;;2.75;2.53;;;19.00;48.60;;;;;;4980236;28;20172;-72
2023/01/23 06:42:30;;;;;;;3.35;3.05;;;19.00;48.60;;;;;;4996774;28;20645;-72
2023/01/23 06:44:56;;;;;;;3.20;2.55;;;19.00;48.60;;;;;;4965179;28;20191;-72
2023/01/23 06:47:24;;;;;;;3.00;2.80;;;19.00;48.60;;;;;;4996484;28;20196;-72
2023/01/23 06:49:58;;;;;;;3.00;2.70;;;19.00;48.60;;;;;;4980964;28;20196;-72
2023/01/23 06:52:24;;;;;;;2.60;2.40;;;19.00;48.60;;;;;;4977554;28;20208;-73
2023/01/23 06:54:50;;;;;;;2.78;2.58;;;19.10;48.70;;;;;;4977628;28;20220;-72
2023/01/23 06:57:16;;;;;;;2.65;2.45;;;19.10;48.70;;;;;;4977102;28;20239;-72
2023/01/23 06:59:44;;;;;;;2.80;2.60;;;19.00;48.60;;;;;;4976964;28;20181;-72
2023/01/23 07:02:12;;;;;;;2.85;2.63;;;19.10;48.70;;;;;;4976708;28;20209;-72
2023/01/23 07:04:50;;;;;;;3.90;3.17;;;19.00;48.60;;;;;;4976776;28;20218;-72
2023/01/23 07:07:16;;;;;;;4.32;2.85;;;19.00;48.60;;;;;;4996067;28;20282;-72
2023/01/23 07:09:43;;;;;;;3.17;2.65;;;19.10;48.70;;;;;;4990751;28;20271;-72
2023/01/23 07:12:14;;;;;;;2.85;2.50;;;19.10;48.60;;;;;;4995707;28;20298;-73
2023/01/23 07:14:40;;;;;;;2.97;2.78;;;19.00;48.60;;;;;;4987826;28;20217;-73
2023/01/23 07:17:08;;;;;;;2.70;2.50;;;19.10;48.70;;;;;;4984638;28;20646;-72
2023/01/23 07:19:34;;;;;;;2.85;2.65;;;19.00;48.50;;;;;;4976131;28;20189;-72
2023/01/23 07:22:03;;;;;;;3.42;3.08;;;19.10;48.70;;;;;;4976576;28;20207;-72
2023/01/23 07:24:31;;;;;;;3.45;2.80;;;19.10;48.70;;;;;;4994280;28;20185;-72
2023/01/23 07:26:57;;;;;;;3.08;2.88;;;19.10;48.70;;;;;;4993946;28;20736;-72
2023/01/23 07:29:22;;;;;;;2.80;2.60;;;19.00;48.60;;;;;;4978846;28;20219;-72
2023/01/23 07:31:48;;;;;;;2.60;2.40;;;19.10;48.70;;;;;;4995672;28;20575;-72
2023/01/23 07:34:14;;;;;;;2.67;2.47;;;19.10;48.60;;;;;;5013243;28;20184;-72
2023/01/23 07:36:40;;;;;;;2.70;2.50;;;19.10;48.70;;;;;;4995690;28;20212;-73
2023/01/23 07:39:05;;;;;;;2.63;2.42;;;19.10;48.60;;;;;;4995493;28;20254;-72
2023/01/23 07:41:31;;;;;;;2.88;2.67;;;19.10;48.60;;;;;;4979457;28;20215;-72
2023/01/23 07:44:01;;;;;;;2.50;2.30;;;19.10;48.70;;;;;;5005607;28;20177;-72
2023/01/23 07:46:27;;;;;;;3.00;2.80;;;19.10;48.70;;;;;;4976126;28;20216;-72
2023/01/23 07:48:53;;;;;;;2.60;2.40;;;19.10;48.60;;;;;;4974499;28;20191;-72
2023/01/23 07:51:19;;;;;;;3.00;2.80;;;19.10;48.70;;;;;;4977466;28;20213;-72
2023/01/23 07:53:44;;;;;;;3.20;3.00;;;19.10;48.60;;;;;;4981527;28;20195;-72
2023/01/23 07:56:10;;;;;;;2.88;2.65;;;19.10;49.20;;;;;;4995376;28;20211;-72
2023/01/23 07:58:36;;;;;;;2.72;2.53;;;19.10;48.70;;;;;;4999150;28;20188;-72
2023/01/23 08:01:09;;;;;;;3.10;2.88;;;19.10;48.70;;;;;;4967504;28;20232;-72
2023/01/23 08:03:35;;;;;;;2.75;2.55;;;19.10;48.70;;;;;;4997592;28;20184;-72
2023/01/23 08:06:01;;;;;;;2.97;2.78;;;19.10;48.60;;;;;;4997798;28;20191;-73
2023/01/23 08:08:27;;;;;;;2.63;2.42;;;19.10;48.70;;;;;;4987136;28;20677;-72
2023/01/23 08:10:53;;;;;;;2.38;2.25;;;19.10;48.60;;;;;;4980549;28;20213;-72
2023/01/23 08:13:18;;;;;;;3.42;2.60;;;19.10;48.70;;;;;;4983689;28;20275;-72
2023/01/23 08:15:45;;;;;;;2.85;2.65;;;19.10;48.70;;;;;;4975409;28;20577;-72
2023/01/23 08:18:11;;;;;;;2.90;2.47;;;19.10;48.70;;;;;;4975738;28;20203;-72
2023/01/23 08:20:36;;;;;;;3.15;2.95;;;19.10;48.70;;;;;;4971315;28;20176;-72
2023/01/23 08:23:02;;;;;;;2.83;2.60;;;19.10;48.70;;;;;;4968043;28;20685;-72
2023/01/23 08:25:28;;;;;;;2.70;2.50;;;19.10;48.60;;;;;;4977204;28;20186;-72
2023/01/23 08:27:54;;;;;;;2.78;2.58;;;19.10;48.70;;;;;;4994861;28;20628;-73
2023/01/23 08:30:20;;;;;;;3.00;2.80;;;19.10;48.60;;;;;;4994220;28;20188;-73
2023/01/23 08:32:46;;;;;;;2.67;2.47;;;19.10;48.60;;;;;;4970852;28;20204;-72
2023/01/23 08:35:11;;;;;;;3.10;2.90;;;19.10;48.60;;;;;;5012089;28;20222;-73
2023/01/23 08:37:37;;;;;;;3.40;2.92;;;19.10;48.60;;;;;;5011063;28;20187;-72
2023/01/23 08:40:04;;;;;;;2.85;2.65;;;19.10;48.60;;;;;;4967210;28;20197;-72
2023/01/23 08:42:29;;;;;;;3.42;3.13;;;19.10;48.50;;;;;;4994118;28;20218;-72
2023/01/23 08:44:55;;;;;;;3.10;2.80;;;19.10;48.60;;;;;;4994473;28;20192;-73
2023/01/23 08:47:21;;;;;;;2.90;2.70;;;19.10;48.60;;;;;;4994532;28;20199;-73
2023/01/23 08:49:47;;;;;;;3.45;3.15;;;19.10;48.60;;;;;;4994332;28;20196;-72
2023/01/23 08:52:12;;;;;;;2.83;2.63;;;19.10;48.60;;;;;;4993736;28;20208;-73
2023/01/23 08:54:38;;;;;;;2.72;2.53;;;19.10;48.60;;;;;;4992196;28;20180;-73
2023/01/23 08:57:05;;;;;;;2.80;2.60;;;19.10;48.60;;;;;;4966538;28;20180;-72
2023/01/23 08:59:30;;;;;;;2.88;2.65;;;19.10;48.60;;;;;;4992118;28;20542;-72
2023/01/23 09:01:56;;;;;;;3.33;3.03;;;19.10;48.60;;;;;;5004404;28;20258;-72
2023/01/23 09:04:22;;;;;;;2.70;2.50;;;19.10;48.60;;;;;;4977995;28;20237;-72
2023/01/23 09:06:48;;;;;;;2.92;2.72;;;19.10;48.60;;;;;;4977989;28;20180;-72
2023/01/23 09:09:13;;;;;;;3.17;2.60;;;19.10;48.50;;;;;;4982302;28;20195;-72
2023/01/23 09:11:39;;;;;;;3.22;2.92;;;19.10;48.50;;;;;;4993849;28;20200;-73
2023/01/23 09:14:05;;;;;;;2.88;2.67;;;19.20;48.60;;;;;;4994105;28;20199;-72
2023/01/23 09:16:30;;;;;;;3.08;2.78;;;19.20;48.50;;;;;;4975391;28;20212;-72
2023/01/23 09:18:56;;;;;;;2.92;2.65;;;19.20;48.60;;;;;;4990344;28;20184;-72
2023/01/23 09:21:22;;;;;;;2.67;2.42;;;19.20;48.60;;;;;;4967870;28;20250;-72
2023/01/23 09:23:47;;;;;;;2.90;2.70;;;19.20;48.50;;;;;;4993918;28;20180;-72
2023/01/23 09:26:14;;;;;;;2.70;2.50;;;19.20;48.50;;;;;;4993956;28;20676;-72
2023/01/23 09:28:41;;;;;;;2.88;2.67;;;19.20;48.50;;;;;;4977616;28;20573;-72
2023/01/23 09:31:11;;;;;;;2.85;2.65;;;19.20;48.60;;;;;;4977567;28;20207;-72
2023/01/23 09:33:38;;;;;;;2.58;2.38;;;19.20;48.60;;;;;;4963869;28;20185;-72
2023/01/23 09:36:04;;;;;;;2.75;2.55;;;19.20;48.50;;;;;;4989561;28;20212;-72
2023/01/23 09:38:32;;;;;;;2.97;2.78;;;19.20;48.50;;;;;;4980636;28;20215;-72
2023/01/23 09:41:07;;;;;;;2.65;2.45;;;19.20;48.50;;;;;;4981678;28;20196;-72
2023/01/23 09:44:22;;;;;;;2.97;2.78;;;19.30;48.50;;;;;;5015407;28;20185;-72
2023/01/23 09:46:54;;;;;;;3.67;2.70;;;19.20;48.40;;;;;;5010566;28;20633;-72
2023/01/23 09:49:45;;;;;;;2.90;2.70;;;19.20;48.40;;;;;;5015217;28;20196;-72
2023/01/23 09:52:23;;;;;;;2.50;2.30;;;19.20;48.40;;;;;;4997638;28;20258;-72
2023/01/23 09:55:12;;;;;;;3.28;2.95;;;19.30;48.50;;;;;;4984491;28;20266;-72
2023/01/23 09:58:02;;;;;;;3.30;3.10;;;19.30;48.40;;;;;;4996804;28;20188;-72
2023/01/23 10:00:30;;;;;;;2.92;2.72;;;19.30;48.40;;;;;;4980267;28;20191;-72
2023/01/23 10:03:02;;;;;;;3.28;2.97;;;19.30;48.40;;;;;;4997457;28;20192;-72
2023/01/23 10:05:40;;;;;;;2.92;2.63;;;19.30;48.40;;;;;;4987541;28;20193;-72
2023/01/23 10:08:26;;;;;;;3.10;2.90;;;19.30;48.50;;;;;;4962727;28;20189;-72
2023/01/23 10:11:43;;;;;;;3.25;3.03;;;19.30;48.50;;;;;;4975222;28;20205;-72
2023/01/23 10:14:19;;;;;;;3.28;2.97;;;19.30;48.50;;;;;;4958957;28;20300;-72
2023/01/23 10:17:15;;;;;;;2.90;2.70;;;19.30;48.50;;;;;;4985326;28;20294;-72
2023/01/23 10:20:41;;;;;;;3.13;2.92;;;19.30;48.50;;;;;;4981324;28;20666;-72
2023/01/23 10:23:34;;;;;;;2.97;2.78;;;19.30;48.50;;;;;;4947484;29;20195;-73
2023/01/23 10:26:03;;;;;;;3.53;3.22;;;19.30;48.50;;;;;;4944922;28;20269;-72
2023/01/23 10:28:41;;;;;;;2.80;2.60;;;19.30;48.50;;;;;;4977009;28;20657;-72
2023/01/23 10:31:18;;;;;;;2.88;2.67;;;19.30;48.50;;;;;;4978578;28;20251;-72
2023/01/23 10:34:25;;;;;;;3.05;2.85;;;19.30;48.40;;;;;;4975140;28;20300;-72
2023/01/23 10:37:41;;;;;;;3.25;2.95;;;19.30;48.50;;;;;;4984225;28;20386;-72
2023/01/23 10:43:18;;;;;;;3.13;2.92;;;19.30;48.50;;;;;;5006434;28;20275;-72
2023/01/23 10:45:47;;;;;;;3.17;2.90;;;19.30;48.50;;;;;;4993752;28;20603;-73
2023/01/23 10:48:50;;;;;;;3.28;2.97;;;19.40;48.50;;;;;;4976999;28;20193;-72
2023/01/23 10:51:37;;;;;;;2.75;2.55;;;19.30;48.50;;;;;;4953514;28;20240;-72
2023/01/23 10:54:20;;;;;;;3.28;3.03;;;19.30;48.50;;;;;;4977895;28;20223;-72
2023/01/23 10:56:53;;;;;;;3.25;3.05;;;19.30;48.50;;;;;;4977849;28;20213;-72
2023/01/23 10:59:27;;;;;;;2.83;2.63;;;19.30;48.50;;;;;;4969392;28;20184;-72
2023/01/23 11:02:13;;;;;;;3.15;2.95;;;19.40;48.60;;;;;;4986377;23;20249;-65
2023/01/23 11:04:43;;;;;;;3.40;3.10;;;19.40;48.60;;;;;;4967364;28;20210;-65
2023/01/23 11:07:15;;;;;;;3.10;2.90;;;19.30;48.50;;;;;;4974282;28;20185;-65
2023/01/23 11:09:54;;;;;;;2.88;2.67;;;19.30;48.50;;;;;;4958423;28;20194;-65
2023/01/23 11:12:33;;;;;;;3.58;3.28;;;19.30;48.50;;;;;;4990228;28;20272;-65
2023/01/23 11:15:20;;;;;;;3.38;3.13;;;19.30;48.50;;;;;;4990317;28;20213;-65
2023/01/23 11:17:48;;;;;;;3.10;2.90;;;19.40;48.50;;;;;;4969186;28;20240;-65
2023/01/23 11:20:25;;;;;;;3.60;3.30;;;19.30;48.50;;;;;;4957979;28;20222;-66
2023/01/23 11:23:09;;;;;;;3.80;3.28;;;19.30;48.40;;;;;;4960875;28;20220;-63
2023/01/23 11:25:41;;;;;;;3.50;3.20;;;19.40;48.50;;;;;;4973880;28;20240;-64
2023/01/23 11:28:25;;;;;;;3.67;3.38;;;19.40;48.60;;;;;;4974066;28;20190;-65
2023/01/23 11:31:16;;;;;;;3.53;3.22;;;19.40;48.50;;;;;;4973641;28;20193;-64
2023/01/23 11:34:11;;;;;;;3.10;2.90;;;19.40;48.50;;;;;;4975308;28;20249;-65
2023/01/23 11:37:01;;;;;;;3.40;3.10;;;19.40;48.50;;;;;;4954393;29;20195;-66
2023/01/23 11:40:13;;;;;;;3.20;2.95;;;19.40;48.50;;;;;;4972608;28;20284;-64
2023/01/23 11:42:42;;;;;;;3.40;3.10;;;19.40;48.50;;;;;;4983396;28;20232;-66
2023/01/23 11:45:25;;;;;;;3.72;3.42;;;19.40;48.40;;;;;;4973544;28;20209;-63
2023/01/23 11:48:15;;;;;;;3.45;3.15;;;19.40;48.50;;;;;;4982913;28;20228;-66
2023/01/23 11:50:52;;;;;;;3.92;3.63;;;19.40;48.50;;;;;;4957129;28;20173;-64
2023/01/23 11:53:51;;;;;;;4.30;3.90;;;19.40;48.50;;;;;;4957483;28;20216;-65
2023/01/23 11:56:54;;;;;;;4.20;3.42;;;19.50;48.50;;;;;;4953883;29;20214;-64
2023/01/23 11:59:45;;;;;;;3.95;3.58;;;19.40;48.40;;;;;;4949228;28;20229;-63
2023/01/23 12:02:43;;;;;;;3.83;3.50;;;19.40;48.40;;;;;;4971427;28;20237;-66
2023/01/23 12:05:23;;;;;;;3.83;3.53;;;19.50;48.60;;;;;;4989363;28;20220;-64
2023/01/23 12:08:10;;;;;;;3.72;3.42;;;19.50;48.50;;;;;;4990427;28;20190;-63
2023/01/23 12:10:58;;;;;;;3.70;3.40;;;19.50;48.50;;;;;;4974211;28;20197;-65
2023/01/23 12:13:29;;;;;;;3.75;3.45;;;19.50;49.10;;;;;;4973356;28;20190;-65
2023/01/23 12:16:33;;;;;;;3.80;3.50;;;19.50;48.50;;;;;;4972989;28;20312;-64
2023/01/23 12:19:59;;;;;;;3.88;3.58;;;19.50;48.50;;;;;;4957113;28;20213;-63
2023/01/23 12:23:15;;;;;;;4.22;3.83;;;19.50;48.60;;;;;;4972782;28;20216;-65
2023/01/23 12:25:55;;;;;;;3.75;3.45;;;19.50;48.50;;;;;;4956802;28;20185;-65
2023/01/23 12:28:39;;;;;;;4.07;3.78;;;19.50;48.50;;;;;;4956714;28;20233;-64
2023/01/23 12:31:43;;;;;;;4.10;3.80;;;19.50;48.50;;;;;;4956526;28;20232;-65
2023/01/23 12:34:24;;;;;;;3.85;3.47;;;19.50;48.50;;;;;;4969592;28;20197;-65
2023/01/23 12:37:22;;;;;;;3.75;3.45;;;19.50;48.50;;;;;;4984865;28;20229;-65
2023/01/23 12:40:09;;;;;;;4.15;3.85;;;19.50;48.50;;;;;;4988457;28;20224;-64
2023/01/23 12:43:06;;;;;;;4.43;4.03;;;19.50;48.50;;;;;;4954523;28;20256;-64
2023/01/23 12:45:32;;;;;;;4.22;3.83;;;19.50;48.50;;;;;;4986966;28;20271;-65
2023/01/23 12:48:10;;;;;;;3.80;3.50;;;19.50;48.50;;;;;;4983092;28;20666;-64
2023/01/23 12:50:46;;;;;;;4.35;3.80;;;19.50;48.50;;;;;;4987027;28;20198;-65
2023/01/23 12:53:20;;;;;;;3.80;3.50;;;19.50;48.50;;;;;;4947980;28;20296;-64
2023/01/23 12:55:56;;;;;;;3.42;3.13;;;19.50;48.50;;;;;;4988663;28;20216;-64
2023/01/23 12:58:26;;;;;;;3.95;3.65;;;19.60;48.60;;;;;;4972411;28;20245;-65
2023/01/23 13:01:14;;;;;;;3.83;3.53;;;19.50;48.50;;;;;;4987505;28;20185;-65
2023/01/23 13:04:33;;;;;;;4.35;4.00;;;19.50;48.50;;;;;;4972311;28;20196;-65
2023/01/23 13:07:38;;;;;;;4.00;3.70;;;19.60;48.60;;;;;;4972308;28;20659;-65
2023/01/23 13:13:19;;;;;;;5.32;3.67;;;19.60;48.60;;;;;;4953972;29;20210;-65
2023/01/23 13:16:03;;;;;;;4.22;3.83;;;19.60;48.60;;;;;;4971788;28;20220;-65
2023/01/23 13:18:29;;;;;;;3.80;3.50;;;19.60;48.60;;;;;;4956064;28;20200;-65
2023/01/23 13:23:46;;;;;;;4.25;3.85;;;19.50;48.50;;;;;;4995789;28;20181;-65
2023/01/23 13:26:15;;;;;;;3.80;3.50;;;19.50;48.50;;;;;;4988164;28;20197;-64
2023/01/23 13:28:46;;;;;;;3.83;3.53;;;19.50;48.60;;;;;;4973063;28;20199;-64
2023/01/23 13:31:32;;;;;;;3.78;3.47;;;19.60;48.70;;;;;;4971898;28;20644;-64
2023/01/23 13:34:01;;;;;;;3.92;3.50;;;19.60;48.60;;;;;;4981438;28;20199;-65
2023/01/23 13:36:31;;;;;;;4.15;3.75;;;19.60;48.70;;;;;;4972901;28;20212;-63